This demonstration page uses our WeatherBlox Daily Observations layout. Learn more.

Left ArrowRight Arrow

Hourly Observations for July 7, 2020

Temp ( °F °C ) Dew Point ( °F °C ) Humidity (%) Winds ( mph kmh ) Pressure ( in mb ) Visibility ( mi km ) Precip ( " mm )
12:51 am 00:51 Clear 84 28.9 31 -0.6 15 15 NW 6 9 29.73 1007 10 16.0934 0 0
1:51 am 01:51 Clear 81 27.2 32 0 17 17 Calm 29.74 1007 10 16.0934 0 0
2:51 am 02:51 Clear 77 25 31 -0.6 18 18 Calm 29.75 1008 10 16.0934 0 0
3:51 am 03:51 Clear 73 22.8 30 -1.1 20 20 ENE 5 7 29.76 1008 10 16.0934 0 0
4:51 am 04:51 Clear 71 21.7 30 -1.1 22 22 SE 5 7 29.78 1008 10 16.0934 0 0
5:51 am 05:51 Sunny 73 22.8 31 -0.6 21 21 SSE 6 9 29.8 1009 10 16.0934 0 0
6:51 am 06:51 Sunny 80 26.7 34 1.1 19 19 Calm 29.79 1009 10 16.0934 0 0
7:51 am 07:51 Sunny 87 30.6 35 1.7 16 16 W 3 6 29.8 1009 10 16.0934 0 0
8:51 am 08:51 Sunny 91 32.8 38 3.3 15 15 WSW 5 7 29.8 1009 10 16.0934 0 0
9:51 am 09:51 Sunny 95 35 38 3.3 14 14 W 6 9 29.8 1009 10 16.0934 0 0
10:51 am 10:51 Sunny 99 37.2 36 2.2 11 11 undefined N/A 29.77 1008 10 16.0934 0 0
11:51 am 11:51 Sunny 103 39.4 37 2.8 10 10 W 14 22 29.75 1007 10 16.0934 0 0
12:51 pm 12:51 Sunny 106 41.1 34 1.1 8 8 W 20 31 29.72 1007 10 16.0934 0 0
1:51 pm 13:51 Sunny 107 41.7 34 1.1 8 8 WNW 16 26 29.7 1006 10 16.0934 0 0
2:51 pm 14:51 Sunny 108 42.2 32 0 7 7 W 17 28 29.67 1005 10 16.0934 0 0
3:51 pm 15:51 Sunny 107 41.7 32 0 7 7 NW 17 28 29.65 1004 10 16.0934 0 0
4:51 pm 16:51 Sunny 107 41.7 34 1.1 8 8 NW 24 39 29.64 1004 10 16.0934 0 0
5:51 pm 17:51 Sunny 105 40.6 35 1.7 9 9 WNW 22 35 29.63 1004 10 16.0934 0 0
6:51 pm 18:51 Sunny 102 38.9 35 1.7 10 10 WNW 17 28 29.63 1003 10 16.0934 0 0
7:51 pm 19:51 Clear 97 36.1 35 1.7 11 11 WNW 14 22 29.64 1004 10 16.0934 0 0
8:51 pm 20:51 Clear 93 33.9 34 1.1 12 12 NW 13 20 29.67 1005 10 16.0934 0 0
9:51 pm 21:51 Clear 90 32.2 35 1.7 14 14 WNW 12 19 29.69 1006 10 16.0934 0 0
10:51 pm 22:51 Clear 85 29.4 35 1.7 17 17 NW 9 15 29.7 1006 10 16.0934 0 0
11:51 pm 23:51 Clear 86 30 36 2.2 17 17 WNW 9 15 29.69 1005 10 16.0934 0 0

Powered by AerisWeather